Time;durP1;ratioP1;P1;durP2;ratioP2;P2;SDS_P1;SDS_P2;PMS_P1;PMS_P2;Temp;Humidity;BMP_temperature;BMP_pressure;BME280_temperature;BME280_humidity;BME280_pressure;Samples;Min_cycle;Max_cycle;Signal;HPM_P1;HPM_P2
2022/09/28 00:01:04;;;;;;;67.75;50.05;;;18.80;69.20;;;;;;4957236;28;95871;-54
2022/09/28 00:03:30;;;;;;;68.00;50.47;;;18.80;69.10;;;;;;4967985;28;94188;-50
2022/09/28 00:06:03;;;;;;;68.40;50.15;;;18.80;69.20;;;;;;4966169;28;100222;-49
2022/09/28 00:08:29;;;;;;;69.22;50.33;;;18.90;68.80;;;;;;4967687;28;96595;-57
2022/09/28 00:10:55;;;;;;;67.75;49.95;;;18.80;68.90;;;;;;4967228;28;101526;-49
2022/09/28 00:13:22;;;;;;;68.70;50.08;;;18.80;68.60;;;;;;4967372;28;95576;-55
2022/09/28 00:16:01;;;;;;;67.90;49.92;;;18.90;68.60;;;;;;4960043;28;95567;-53
2022/09/28 00:18:28;;;;;;;69.20;50.28;;;18.80;68.60;;;;;;4959958;28;98496;-49
2022/09/28 00:21:07;;;;;;;68.00;50.30;;;18.80;68.70;;;;;;4969228;28;95516;-52
2022/09/28 00:23:34;;;;;;;68.30;50.17;;;18.80;68.60;;;;;;4964117;28;97519;-52
2022/09/28 00:26:05;;;;;;;67.10;49.85;;;18.80;68.60;;;;;;4955228;28;99898;-53
2022/09/28 00:28:31;;;;;;;67.63;50.13;;;18.80;68.80;;;;;;4960045;28;97497;-53
2022/09/28 00:30:59;;;;;;;67.75;49.92;;;18.70;68.80;;;;;;4965798;28;95108;-53
2022/09/28 00:33:25;;;;;;;68.28;49.95;;;18.70;69.00;;;;;;4965218;28;94868;-48
2022/09/28 00:35:55;;;;;;;67.63;49.85;;;18.70;68.90;;;;;;4972955;28;98465;-50
2022/09/28 00:38:21;;;;;;;67.38;49.78;;;18.70;69.00;;;;;;4953254;28;96162;-52
2022/09/28 00:40:46;;;;;;;67.97;49.92;;;18.70;69.00;;;;;;4973896;28;94956;-52
2022/09/28 00:43:17;;;;;;;68.47;49.83;;;18.70;68.80;;;;;;4954736;28;96090;-52
2022/09/28 00:45:43;;;;;;;67.50;49.85;;;18.70;68.80;;;;;;4970467;28;95589;-51
2022/09/28 00:48:10;;;;;;;67.45;49.95;;;18.60;69.00;;;;;;4967456;28;96217;-49
2022/09/28 00:50:37;;;;;;;68.13;50.03;;;18.70;68.90;;;;;;4952621;28;95962;-53
2022/09/28 00:53:36;;;;;;;67.30;49.67;;;18.70;68.90;;;;;;4959743;28;94631;-52
2022/09/28 00:56:08;;;;;;;67.53;49.90;;;18.60;68.90;;;;;;4961606;28;95892;-48
2022/09/28 00:58:40;;;;;;;66.95;49.65;;;18.70;68.90;;;;;;4965627;28;95381;-50
2022/09/28 01:01:05;;;;;;;70.40;50.20;;;18.60;68.90;;;;;;4972947;28;96522;-51
2022/09/28 01:03:32;;;;;;;68.63;49.83;;;18.60;68.90;;;;;;4965498;28;97122;-53
2022/09/28 01:06:01;;;;;;;68.78;49.55;;;18.60;69.00;;;;;;4974603;28;96124;-52
2022/09/28 01:08:29;;;;;;;67.15;49.47;;;18.50;69.10;;;;;;4973166;28;95278;-51
2022/09/28 01:10:56;;;;;;;68.53;50.08;;;18.60;69.00;;;;;;4961802;28;96122;-53
2022/09/28 01:13:23;;;;;;;68.30;49.47;;;18.50;68.80;;;;;;4963192;28;95270;-52
2022/09/28 01:15:55;;;;;;;67.30;49.60;;;18.50;69.00;;;;;;4961417;28;95524;-53
2022/09/28 01:18:52;;;;;;;67.53;49.85;;;18.50;68.90;;;;;;4973236;28;94679;-50
2022/09/28 01:21:20;;;;;;;66.93;49.63;;;18.50;69.00;;;;;;4964101;28;95149;-49
2022/09/28 01:23:58;;;;;;;67.05;49.95;;;18.50;68.70;;;;;;4961756;28;95593;-52
2022/09/28 01:26:43;;;;;;;68.10;49.58;;;18.50;68.80;;;;;;4959571;28;102816;-53
2022/09/28 01:29:30;;;;;;;67.43;49.65;;;18.50;69.00;;;;;;4964330;28;95814;-54
2022/09/28 01:32:20;;;;;;;66.90;49.55;;;18.50;68.70;;;;;;4969779;28;95427;-51
2022/09/28 01:34:58;;;;;;;67.78;49.53;;;18.60;68.50;;;;;;4962932;28;96622;-50
2022/09/28 01:37:32;;;;;;;67.75;49.60;;;18.40;68.50;;;;;;4969164;28;102337;-51
2022/09/28 01:40:00;;;;;;;68.28;49.58;;;18.50;68.70;;;;;;4961284;28;96520;-48
2022/09/28 01:42:31;;;;;;;66.57;49.22;;;18.50;68.30;;;;;;4958989;28;98729;-50
2022/09/28 01:45:03;;;;;;;66.93;49.65;;;18.40;68.60;;;;;;4962325;28;94580;-47
2022/09/28 01:47:35;;;;;;;68.10;49.50;;;18.40;68.70;;;;;;4964896;28;98960;-49
2022/09/28 01:50:13;;;;;;;68.70;49.67;;;18.40;68.40;;;;;;4964881;28;96239;-53
2022/09/28 01:52:48;;;;;;;67.78;49.63;;;18.40;68.50;;;;;;4951381;28;97140;-48
2022/09/28 01:55:26;;;;;;;68.30;49.28;;;18.30;68.50;;;;;;4966349;28;95062;-53
2022/09/28 01:57:55;;;;;;;67.22;49.33;;;18.40;68.60;;;;;;4963653;28;96231;-51
2022/09/28 02:00:23;;;;;;;67.90;49.47;;;18.40;68.20;;;;;;4959191;28;96768;-51
2022/09/28 02:03:12;;;;;;;67.13;49.53;;;18.40;68.20;;;;;;4965187;28;96957;-51
2022/09/28 02:05:40;;;;;;;69.57;49.60;;;18.40;68.30;;;;;;4958139;28;95482;-48
2022/09/28 02:08:39;;;;;;;67.40;49.45;;;18.40;68.40;;;;;;4962561;28;96058;-48
2022/09/28 02:11:13;;;;;;;66.35;49.20;;;18.30;68.60;;;;;;4958078;28;97800;-50
2022/09/28 02:13:55;;;;;;;67.55;49.30;;;18.40;68.40;;;;;;4963936;28;95031;-52
2022/09/28 02:16:37;;;;;;;66.20;49.40;;;18.30;68.40;;;;;;4955810;28;96363;-52
2022/09/28 02:19:05;;;;;;;66.43;49.10;;;18.20;68.40;;;;;;4955380;28;97386;-53
2022/09/28 02:21:45;;;;;;;66.22;49.08;;;18.20;68.50;;;;;;4959198;28;96179;-51
2022/09/28 02:24:21;;;;;;;68.22;49.58;;;18.20;68.40;;;;;;4962451;28;95331;-49
2022/09/28 02:26:49;;;;;;;68.03;49.17;;;18.20;68.40;;;;;;4961426;28;95071;-54
2022/09/28 02:29:15;;;;;;;66.15;48.95;;;18.20;68.40;;;;;;4963184;28;95113;-50
2022/09/28 02:31:41;;;;;;;66.55;49.13;;;18.20;68.50;;;;;;4957219;28;95863;-52
2022/09/28 02:34:07;;;;;;;68.05;49.72;;;18.20;68.40;;;;;;4964030;28;96016;-49
2022/09/28 02:36:33;;;;;;;67.30;49.17;;;18.20;68.40;;;;;;4963769;28;94766;-49
2022/09/28 02:39:01;;;;;;;66.43;49.55;;;18.20;68.40;;;;;;4961296;28;95211;-52
2022/09/28 02:41:54;;;;;;;66.57;49.20;;;18.20;68.30;;;;;;4961309;28;96504;-51
2022/09/28 02:44:34;;;;;;;68.70;49.45;;;18.20;68.30;;;;;;4949854;28;98028;-53
2022/09/28 02:47:34;;;;;;;66.47;49.38;;;18.20;68.30;;;;;;4956312;28;95192;-52
2022/09/28 02:50:03;;;;;;;65.88;49.55;;;18.20;68.20;;;;;;4954152;28;99311;-50
2022/09/28 02:52:37;;;;;;;66.70;49.20;;;18.20;68.20;;;;;;4962169;28;96355;-52
2022/09/28 02:55:24;;;;;;;68.30;49.40;;;18.20;68.10;;;;;;4965320;28;96576;-48
2022/09/28 02:58:23;;;;;;;66.65;49.30;;;18.20;68.40;;;;;;4956814;28;96407;-54
2022/09/28 03:01:14;;;;;;;66.00;49.03;;;18.10;68.00;;;;;;4961986;28;95251;-52
2022/09/28 03:03:52;;;;;;;67.80;49.33;;;18.20;67.90;;;;;;4955282;28;95904;-55
2022/09/28 03:06:45;;;;;;;68.18;49.28;;;18.20;67.80;;;;;;4966063;28;97217;-57
2022/09/28 03:09:36;;;;;;;67.97;49.30;;;18.20;67.80;;;;;;4966511;28;96071;-57
2022/09/28 03:12:11;;;;;;;66.65;49.08;;;18.20;67.80;;;;;;4959501;28;97619;-55
2022/09/28 03:14:37;;;;;;;66.40;49.22;;;18.10;67.80;;;;;;4961029;28;97612;-56
2022/09/28 03:17:03;;;;;;;67.80;49.13;;;18.10;67.90;;;;;;4957326;28;101120;-57
2022/09/28 03:19:33;;;;;;;66.00;49.33;;;18.10;68.00;;;;;;4960541;28;95229;-56
2022/09/28 03:21:59;;;;;;;68.43;49.35;;;18.10;67.70;;;;;;4964370;28;95313;-55
2022/09/28 03:24:25;;;;;;;66.93;49.10;;;18.20;67.50;;;;;;4970546;28;94962;-57
2022/09/28 03:26:50;;;;;;;66.53;49.42;;;18.20;67.50;;;;;;4957377;28;95044;-57
2022/09/28 03:29:16;;;;;;;67.18;49.15;;;18.10;67.50;;;;;;4953086;28;96996;-56
2022/09/28 03:31:43;;;;;;;66.28;49.22;;;18.20;67.50;;;;;;4959376;28;98967;-55
2022/09/28 03:34:08;;;;;;;66.78;49.40;;;18.30;67.20;;;;;;4965021;28;96988;-55
2022/09/28 03:36:34;;;;;;;65.85;49.45;;;18.30;66.90;;;;;;4959456;28;100274;-56
2022/09/28 03:39:00;;;;;;;67.90;49.05;;;18.40;66.90;;;;;;4970841;28;95073;-55
2022/09/28 03:41:26;;;;;;;67.68;49.45;;;18.40;66.80;;;;;;4966132;28;96289;-57
2022/09/28 03:43:52;;;;;;;66.65;49.40;;;18.30;66.90;;;;;;4961421;28;97256;-56
2022/09/28 03:46:18;;;;;;;65.35;48.95;;;18.30;66.90;;;;;;4960685;28;97973;-57
2022/09/28 03:48:44;;;;;;;66.13;49.25;;;18.30;66.80;;;;;;4964214;28;95325;-56
2022/09/28 03:51:11;;;;;;;66.75;49.20;;;18.30;66.90;;;;;;4967320;28;95678;-57
2022/09/28 03:53:37;;;;;;;66.20;49.20;;;18.40;66.70;;;;;;4965143;28;94882;-55
2022/09/28 03:56:13;;;;;;;67.50;49.17;;;18.30;66.60;;;;;;4967787;28;95093;-57
2022/09/28 03:58:39;;;;;;;65.57;49.25;;;18.40;66.70;;;;;;4962767;28;95370;-57
2022/09/28 04:01:12;;;;;;;65.75;48.92;;;18.30;66.70;;;;;;4955595;28;98151;-56
2022/09/28 04:03:38;;;;;;;68.57;49.33;;;18.40;66.50;;;;;;4962615;28;99633;-57
2022/09/28 04:06:04;;;;;;;66.80;48.95;;;18.40;66.20;;;;;;4969547;28;94879;-56
2022/09/28 04:08:30;;;;;;;65.88;49.03;;;18.30;66.30;;;;;;4955255;28;95116;-56
2022/09/28 04:10:57;;;;;;;66.13;49.35;;;18.40;66.60;;;;;;4958104;28;95617;-57
2022/09/28 04:13:24;;;;;;;65.30;48.80;;;18.40;66.20;;;;;;4965958;28;95605;-57
2022/09/28 04:15:54;;;;;;;66.70;49.15;;;18.30;66.30;;;;;;4965989;28;96129;-56
2022/09/28 04:18:20;;;;;;;66.75;49.30;;;18.30;66.30;;;;;;4960619;28;95066;-56
2022/09/28 04:20:47;;;;;;;68.65;49.15;;;18.20;66.60;;;;;;4965063;28;95148;-55
2022/09/28 04:23:14;;;;;;;66.20;49.03;;;18.20;66.70;;;;;;4957850;28;95902;-56
2022/09/28 04:25:39;;;;;;;65.35;49.38;;;18.20;66.70;;;;;;4961824;28;96287;-58
2022/09/28 04:30:49;;;;;;;67.00;49.25;;;18.10;66.80;;;;;;4957845;28;95211;-57
2022/09/28 04:33:15;;;;;;;66.60;48.95;;;18.00;67.10;;;;;;4970739;28;95286;-56
2022/09/28 04:35:40;;;;;;;66.40;48.97;;;18.00;67.20;;;;;;4960933;28;95111;-55
2022/09/28 04:38:06;;;;;;;68.60;49.17;;;17.90;67.30;;;;;;4965281;28;98533;-58
2022/09/28 04:40:32;;;;;;;65.82;49.10;;;17.90;67.40;;;;;;4966072;28;94774;-54
2022/09/28 04:42:57;;;;;;;65.70;49.10;;;17.90;67.60;;;;;;4970767;28;94664;-54
2022/09/28 04:45:26;;;;;;;67.38;49.00;;;17.90;67.40;;;;;;4955754;28;96805;-55
2022/09/28 04:47:52;;;;;;;65.85;49.17;;;17.90;67.40;;;;;;4965086;28;97086;-57
2022/09/28 04:50:17;;;;;;;65.82;49.05;;;17.90;67.60;;;;;;4953015;28;98923;-58
2022/09/28 04:52:43;;;;;;;72.18;49.78;;;18.00;67.40;;;;;;4970675;28;95142;-55
2022/09/28 04:55:12;;;;;;;68.47;49.35;;;17.90;67.40;;;;;;4972772;28;96048;-57
2022/09/28 04:57:39;;;;;;;68.45;49.67;;;17.90;67.60;;;;;;4965725;28;95673;-56
2022/09/28 05:00:05;;;;;;;69.15;49.67;;;17.80;67.70;;;;;;4955873;28;96225;-50
2022/09/28 05:02:32;;;;;;;71.85;49.40;;;17.80;67.60;;;;;;4961079;28;95407;-51
2022/09/28 05:04:58;;;;;;;68.30;49.67;;;17.80;67.80;;;;;;4958932;28;96520;-54
2022/09/28 05:07:25;;;;;;;68.43;49.50;;;17.80;67.90;;;;;;4966065;28;94053;-51
2022/09/28 05:09:50;;;;;;;68.78;49.10;;;17.90;67.80;;;;;;4961323;28;97223;-53
2022/09/28 05:12:16;;;;;;;67.82;49.30;;;17.80;68.10;;;;;;4963040;28;95947;-51
2022/09/28 05:14:42;;;;;;;73.82;49.10;;;17.80;68.30;;;;;;4966645;28;96984;-52
2022/09/28 05:17:09;;;;;;;69.40;49.28;;;17.80;68.30;;;;;;4963746;28;99822;-53
2022/09/28 05:19:35;;;;;;;68.70;49.05;;;17.90;68.20;;;;;;4970131;28;95128;-51
2022/09/28 05:22:03;;;;;;;68.70;49.15;;;17.90;67.80;;;;;;4971651;28;95028;-52
2022/09/28 05:24:29;;;;;;;70.93;49.55;;;17.90;67.80;;;;;;4962913;28;95081;-53
2022/09/28 05:26:55;;;;;;;67.40;49.25;;;17.90;67.80;;;;;;4961067;28;94786;-50
2022/09/28 05:29:21;;;;;;;69.20;49.30;;;17.90;68.30;;;;;;4961950;28;95816;-49
2022/09/28 05:31:46;;;;;;;69.15;49.75;;;17.90;68.90;;;;;;4957449;28;95471;-54
2022/09/28 05:34:12;;;;;;;71.85;49.72;;;17.90;69.60;;;;;;4971674;28;95069;-53
2022/09/28 05:36:39;;;;;;;72.18;50.03;;;17.90;69.10;;;;;;4955801;28;96390;-48
2022/09/28 05:39:05;;;;;;;74.13;50.17;;;17.90;69.40;;;;;;4964470;28;95974;-51
2022/09/28 05:41:31;;;;;;;75.43;49.45;;;17.80;69.50;;;;;;4958883;28;95458;-51
2022/09/28 05:43:57;;;;;;;70.82;50.15;;;17.80;69.30;;;;;;4948699;28;95311;-50
2022/09/28 05:46:23;;;;;;;74.35;50.38;;;17.70;68.90;;;;;;4958863;28;95949;-54
2022/09/28 05:48:51;;;;;;;71.05;50.05;;;17.90;69.30;;;;;;4969543;28;96270;-49
2022/09/28 05:51:16;;;;;;;73.80;49.88;;;17.80;69.00;;;;;;4967054;28;95701;-50
2022/09/28 05:53:42;;;;;;;70.20;49.75;;;17.80;69.40;;;;;;4960765;28;94970;-50
2022/09/28 05:56:08;;;;;;;75.40;50.03;;;17.80;69.00;;;;;;4963015;28;94431;-50
2022/09/28 05:58:33;;;;;;;73.65;49.72;;;17.80;68.90;;;;;;4971965;28;98401;-51
2022/09/28 06:00:59;;;;;;;67.75;49.65;;;17.80;68.60;;;;;;4959304;28;98326;-52
2022/09/28 06:03:25;;;;;;;70.30;49.75;;;17.80;68.90;;;;;;4965615;28;95697;-47
2022/09/28 06:05:50;;;;;;;70.10;49.53;;;17.80;68.90;;;;;;4968403;28;95109;-48
2022/09/28 06:08:16;;;;;;;70.63;49.88;;;17.70;69.00;;;;;;4961779;28;95539;-47
2022/09/28 06:10:41;;;;;;;67.80;49.80;;;17.80;69.70;;;;;;4956021;28;95961;-49
2022/09/28 06:13:07;;;;;;;65.78;49.20;;;17.90;68.50;;;;;;4964269;28;98976;-53
2022/09/28 06:15:34;;;;;;;68.47;49.78;;;18.00;68.10;;;;;;4963189;28;95306;-49
2022/09/28 06:18:03;;;;;;;67.28;49.83;;;17.90;68.10;;;;;;4968683;27;96241;-50
2022/09/28 06:20:32;;;;;;;68.85;49.78;;;18.10;68.00;;;;;;4953275;28;99081;-48
2022/09/28 06:22:58;;;;;;;67.03;49.63;;;18.40;67.50;;;;;;4960483;28;95189;-51
2022/09/28 06:25:24;;;;;;;68.47;49.53;;;18.60;67.10;;;;;;4968775;28;96843;-49
2022/09/28 06:28:01;;;;;;;69.63;49.55;;;18.60;67.10;;;;;;4958570;28;96879;-47
2022/09/28 06:30:29;;;;;;;66.85;49.25;;;18.70;66.80;;;;;;4953531;28;95859;-51
2022/09/28 06:32:57;;;;;;;67.55;49.28;;;18.70;66.90;;;;;;4961317;28;97530;-47
2022/09/28 06:35:24;;;;;;;69.30;49.65;;;18.60;67.00;;;;;;4970031;28;95232;-51
2022/09/28 06:37:51;;;;;;;68.00;49.90;;;18.50;66.70;;;;;;4958220;28;95438;-48
2022/09/28 06:40:18;;;;;;;69.93;49.08;;;18.40;67.60;;;;;;4949323;28;98023;-52
2022/09/28 06:42:53;;;;;;;70.40;49.75;;;18.40;67.80;;;;;;4969989;28;95270;-47
2022/09/28 06:45:24;;;;;;;67.85;49.45;;;18.50;67.40;;;;;;4972063;28;94106;-49
2022/09/28 06:47:57;;;;;;;71.63;49.55;;;18.60;67.40;;;;;;4962685;28;95323;-50
2022/09/28 06:50:31;;;;;;;68.85;49.53;;;18.60;67.00;;;;;;4959216;28;95325;-49
2022/09/28 06:52:57;;;;;;;71.05;49.55;;;18.40;67.00;;;;;;4964671;28;99060;-49
2022/09/28 06:55:24;;;;;;;68.53;50.00;;;18.30;67.20;;;;;;4965073;28;97443;-47
2022/09/28 06:57:59;;;;;;;72.72;50.10;;;18.20;67.50;;;;;;4960596;28;95574;-50
2022/09/28 07:00:31;;;;;;;70.65;49.47;;;18.20;67.50;;;;;;4958633;28;96331;-48
2022/09/28 07:02:57;;;;;;;67.03;49.75;;;18.20;67.30;;;;;;4959691;28;96133;-52
2022/09/28 07:05:26;;;;;;;68.72;49.92;;;18.20;67.10;;;;;;4960788;28;98241;-51
2022/09/28 07:07:57;;;;;;;67.07;49.10;;;18.10;67.20;;;;;;4964474;28;95504;-45
2022/09/28 07:10:26;;;;;;;68.68;49.95;;;18.20;67.50;;;;;;4972184;28;95381;-51
2022/09/28 07:12:52;;;;;;;68.13;49.58;;;18.10;67.10;;;;;;4964339;28;95572;-49
2022/09/28 07:15:19;;;;;;;69.78;49.95;;;18.10;67.30;;;;;;4965128;28;97579;-46
2022/09/28 07:17:45;;;;;;;70.38;49.90;;;18.20;67.70;;;;;;4963377;28;96953;-48
2022/09/28 07:20:10;;;;;;;68.95;50.00;;;18.20;67.60;;;;;;4971756;28;101727;-49
2022/09/28 07:22:37;;;;;;;69.53;49.50;;;18.20;67.20;;;;;;4958243;28;95017;-48
2022/09/28 07:25:05;;;;;;;68.78;49.78;;;18.20;67.60;;;;;;4968002;28;95712;-48
2022/09/28 07:27:30;;;;;;;68.65;49.72;;;18.20;67.40;;;;;;4967134;28;97079;-46
2022/09/28 07:29:57;;;;;;;65.72;49.40;;;18.20;66.90;;;;;;4961039;28;95547;-49
2022/09/28 07:32:23;;;;;;;68.82;49.25;;;18.20;67.30;;;;;;4964683;28;98171;-53
2022/09/28 07:34:49;;;;;;;68.03;49.67;;;18.20;66.90;;;;;;4967441;28;97356;-48
2022/09/28 07:37:17;;;;;;;68.97;49.88;;;18.20;66.80;;;;;;4964569;28;95434;-48
2022/09/28 07:42:29;;;;;;;68.25;49.65;;;18.30;66.90;;;;;;4966655;28;96524;-47
2022/09/28 07:44:58;;;;;;;68.70;49.22;;;18.30;66.60;;;;;;4965508;28;96117;-50
2022/09/28 07:47:27;;;;;;;69.05;50.00;;;18.30;66.70;;;;;;4962886;28;95313;-49
2022/09/28 07:49:55;;;;;;;69.65;49.80;;;18.20;66.30;;;;;;4966618;28;95216;-52
2022/09/28 07:52:25;;;;;;;68.20;49.60;;;18.20;66.30;;;;;;4980801;28;100148;-51
2022/09/28 07:54:56;;;;;;;69.10;49.65;;;18.30;66.50;;;;;;4952394;28;95786;-47
2022/09/28 07:57:22;;;;;;;;;;;18.30;66.70;;;;;;4959672;28;95375;-54
2022/09/28 07:59:49;;;;;;;69.85;49.42;;;18.50;66.40;;;;;;4970551;28;95484;-53
2022/09/28 08:02:19;;;;;;;72.68;49.58;;;18.60;66.70;;;;;;4962195;28;100318;-51
2022/09/28 08:04:48;;;;;;;66.40;49.33;;;18.70;66.60;;;;;;4963009;28;100708;-50
2022/09/28 08:07:15;;;;;;;69.35;50.17;;;18.80;66.60;;;;;;4950682;28;97021;-51
2022/09/28 08:09:42;;;;;;;71.93;49.95;;;18.90;66.80;;;;;;4960159;28;98504;-51
2022/09/28 08:12:08;;;;;;;69.75;50.25;;;18.80;66.40;;;;;;4956576;28;95130;-50
2022/09/28 08:14:34;;;;;;;67.07;49.78;;;18.70;66.60;;;;;;4964275;28;95316;-49
2022/09/28 08:17:00;;;;;;;68.38;50.05;;;18.70;66.60;;;;;;4964180;28;95424;-48
2022/09/28 08:21:43;;;;;;;69.00;49.85;;;18.60;66.50;;;;;;4960338;28;95159;-47
2022/09/28 08:22:12;;;;;;;67.85;49.67;;;18.50;66.70;;;;;;4972313;28;95043;-49
2022/09/28 08:24:38;;;;;;;70.90;49.90;;;18.60;66.50;;;;;;4967513;28;95045;-50
2022/09/28 08:27:04;;;;;;;70.03;49.72;;;18.60;66.50;;;;;;4965377;28;94964;-49
2022/09/28 08:29:30;;;;;;;68.70;49.75;;;18.60;66.00;;;;;;4971443;28;95097;-46
2022/09/28 08:31:58;;;;;;;69.10;49.63;;;18.50;66.10;;;;;;4962073;28;96497;-49
2022/09/28 08:34:26;;;;;;;68.22;49.78;;;18.60;66.90;;;;;;4971046;28;95198;-50
2022/09/28 08:36:52;;;;;;;68.63;49.72;;;18.50;66.00;;;;;;4974079;28;95523;-51
2022/09/28 08:39:18;;;;;;;69.35;49.38;;;18.50;66.20;;;;;;4972485;28;95610;-51
2022/09/28 08:42:17;;;;;;;68.03;49.45;;;18.50;66.20;;;;;;4962068;28;95121;-49
2022/09/28 08:44:50;;;;;;;68.07;49.55;;;18.50;66.10;;;;;;4961962;28;96893;-52
2022/09/28 08:50:19;;;;;;;66.93;49.17;;;18.50;65.80;;;;;;4963840;28;101263;-50
2022/09/28 08:52:50;;;;;;;67.82;49.28;;;18.50;66.10;;;;;;4968266;28;95914;-48
2022/09/28 08:55:30;;;;;;;69.20;49.33;;;18.50;65.90;;;;;;4963639;28;98918;-49
2022/09/28 08:58:11;;;;;;;69.20;49.83;;;18.50;66.00;;;;;;4955257;28;96526;-53
2022/09/28 09:00:49;;;;;;;69.23;49.70;;;18.50;65.30;;;;;;4962643;28;95390;-48
2022/09/28 09:03:20;;;;;;;66.40;49.53;;;18.50;65.20;;;;;;4957433;28;96611;-51
2022/09/28 09:06:25;;;;;;;69.53;49.80;;;18.50;65.50;;;;;;4955536;28;98065;-50
2022/09/28 09:09:10;;;;;;;66.40;49.08;;;18.50;65.50;;;;;;4963999;28;97917;-48
2022/09/28 09:11:48;;;;;;;67.38;49.20;;;18.50;65.70;;;;;;4964028;28;95269;-48
2022/09/28 09:14:33;;;;;;;66.72;49.38;;;18.50;65.20;;;;;;4958486;28;95550;-50
2022/09/28 09:17:17;;;;;;;68.93;49.53;;;18.60;65.30;;;;;;4959576;28;99536;-51
2022/09/28 09:19:46;;;;;;;67.03;49.53;;;18.60;65.20;;;;;;4951644;28;95582;-48
2022/09/28 09:22:42;;;;;;;68.80;49.60;;;18.60;65.10;;;;;;4954319;28;95599;-51
2022/09/28 09:25:18;;;;;;;68.72;49.78;;;18.60;65.30;;;;;;4964428;28;96272;-50
2022/09/28 09:28:00;;;;;;;66.82;49.38;;;18.60;64.90;;;;;;4959519;28;94873;-51
2022/09/28 09:30:31;;;;;;;68.30;49.47;;;18.70;65.10;;;;;;4960535;28;95990;-52
2022/09/28 09:33:05;;;;;;;67.60;49.45;;;18.60;64.80;;;;;;4960799;28;95841;-51
2022/09/28 09:35:49;;;;;;;68.50;49.47;;;18.60;64.60;;;;;;4960352;28;97142;-51
2022/09/28 09:38:54;;;;;;;67.35;49.42;;;18.60;65.10;;;;;;4956589;28;95550;-50
2022/09/28 09:41:25;;;;;;;67.57;49.63;;;18.60;64.70;;;;;;4955552;28;98390;-48
2022/09/28 09:44:19;;;;;;;69.63;49.28;;;18.70;65.80;;;;;;4966070;28;96556;-50
2022/09/28 09:46:54;;;;;;;66.28;49.00;;;18.70;65.20;;;;;;4955740;28;95489;-51
2022/09/28 09:49:41;;;;;;;68.28;49.50;;;18.70;65.10;;;;;;4951990;28;95814;-47
2022/09/28 09:52:20;;;;;;;66.68;49.30;;;18.70;64.90;;;;;;4960161;28;96589;-49
2022/09/28 09:54:58;;;;;;;69.95;49.45;;;18.70;64.60;;;;;;4960227;28;96062;-48
2022/09/28 09:57:49;;;;;;;66.85;49.83;;;18.70;64.70;;;;;;4960115;28;95342;-51
2022/09/28 10:00:16;;;;;;;68.45;49.45;;;18.70;64.60;;;;;;4961241;28;94825;-53
2022/09/28 10:02:46;;;;;;;67.63;49.55;;;18.70;65.00;;;;;;4965406;28;95696;-51
2022/09/28 10:05:11;;;;;;;68.18;49.58;;;18.80;64.90;;;;;;4963214;28;95952;-51
2022/09/28 10:08:00;;;;;;;67.18;49.42;;;18.80;64.60;;;;;;4959262;28;95534;-49
2022/09/28 10:10:37;;;;;;;68.65;49.45;;;18.80;64.90;;;;;;4964312;28;97114;-50
2022/09/28 10:13:04;;;;;;;68.50;49.95;;;18.80;64.80;;;;;;4957435;28;96314;-49
2022/09/28 10:15:38;;;;;;;67.93;49.67;;;18.90;64.60;;;;;;4959846;28;97034;-50
2022/09/28 10:18:09;;;;;;;67.13;49.35;;;18.90;64.90;;;;;;4961406;28;97771;-52
2022/09/28 10:20:38;;;;;;;69.10;49.88;;;18.90;64.90;;;;;;4959460;28;95167;-52
2022/09/28 10:23:14;;;;;;;67.95;49.70;;;19.00;64.90;;;;;;4960733;28;95656;-52
2022/09/28 10:25:42;;;;;;;67.78;49.75;;;18.90;64.50;;;;;;4958652;28;96471;-49
2022/09/28 10:28:17;;;;;;;68.28;49.58;;;18.90;64.50;;;;;;4955640;28;95886;-48
2022/09/28 10:30:43;;;;;;;68.25;49.45;;;19.00;64.70;;;;;;4965183;28;95557;-50
2022/09/28 10:33:31;;;;;;;67.90;49.72;;;19.00;64.40;;;;;;4951716;28;96468;-49
2022/09/28 10:36:03;;;;;;;71.13;49.95;;;19.00;64.30;;;;;;4957279;28;96075;-48
2022/09/28 10:38:29;;;;;;;69.50;49.65;;;19.10;64.20;;;;;;4956299;28;96048;-49
2022/09/28 10:41:17;;;;;;;69.70;50.25;;;19.10;64.20;;;;;;4969773;28;95316;-50
2022/09/28 10:44:15;;;;;;;67.95;50.10;;;19.10;64.00;;;;;;4952833;28;99069;-52
2022/09/28 10:46:40;;;;;;;69.47;50.20;;;19.10;64.00;;;;;;4957985;28;97428;-49
2022/09/28 10:49:16;;;;;;;70.40;49.97;;;19.20;63.90;;;;;;4962459;28;95119;-49
2022/09/28 10:51:50;;;;;;;69.85;50.08;;;19.20;63.90;;;;;;4959224;28;98568;-52
2022/09/28 10:54:24;;;;;;;69.03;49.70;;;19.20;63.90;;;;;;4959490;28;100412;-49
2022/09/28 10:56:51;;;;;;;68.97;49.80;;;19.30;63.70;;;;;;4958633;28;98976;-48
2022/09/28 10:59:38;;;;;;;70.57;49.95;;;19.30;64.00;;;;;;4960977;28;95358;-49
2022/09/28 11:02:18;;;;;;;68.93;50.22;;;19.30;64.00;;;;;;4956321;28;93991;-50
2022/09/28 11:04:59;;;;;;;68.28;50.20;;;19.30;64.10;;;;;;4961648;28;97566;-47
2022/09/28 11:07:31;;;;;;;67.10;49.70;;;19.30;63.90;;;;;;4959737;28;98705;-48
2022/09/28 11:09:57;;;;;;;;;;;19.20;63.90;;;;;;4956825;28;102618;-50
2022/09/28 11:12:34;;;;;;;68.95;49.72;;;19.20;64.00;;;;;;4964753;28;95266;-52
2022/09/28 11:15:03;;;;;;;69.15;50.10;;;19.20;64.10;;;;;;4967229;28;96330;-52
2022/09/28 11:17:37;;;;;;;68.25;49.88;;;19.30;64.00;;;;;;4959069;28;95286;-51
2022/09/28 11:20:34;;;;;;;67.53;49.63;;;19.20;63.70;;;;;;4962313;28;95689;-48
2022/09/28 11:23:14;;;;;;;68.10;49.90;;;19.20;64.00;;;;;;4962776;28;95231;-49
2022/09/28 11:25:41;;;;;;;67.95;49.97;;;19.30;63.60;;;;;;4966134;28;95901;-48
2022/09/28 11:28:21;;;;;;;67.75;49.55;;;19.20;63.90;;;;;;4970257;28;97381;-50
2022/09/28 11:30:52;;;;;;;68.30;49.95;;;19.30;63.70;;;;;;4954473;28;95775;-50
2022/09/28 11:33:26;;;;;;;68.95;49.97;;;19.20;63.50;;;;;;4960606;28;97782;-49
2022/09/28 11:36:18;;;;;;;68.25;49.50;;;19.30;63.80;;;;;;4971345;28;96416;-54
2022/09/28 11:39:07;;;;;;;70.32;49.72;;;19.30;63.30;;;;;;4961165;28;96188;-48
2022/09/28 11:41:35;;;;;;;68.00;49.92;;;19.30;63.10;;;;;;4960508;28;95353;-51
2022/09/28 11:44:16;;;;;;;68.90;50.05;;;19.30;63.30;;;;;;4963310;28;98308;-51
2022/09/28 11:47:29;;;;;;;68.23;49.90;;;19.30;63.40;;;;;;4955263;28;95633;-50
2022/09/28 11:50:05;;;;;;;68.13;49.97;;;19.20;63.30;;;;;;4962791;28;95543;-51
2022/09/28 11:52:40;;;;;;;68.20;49.63;;;19.30;63.50;;;;;;4968095;28;95055;-50
2022/09/28 11:55:33;;;;;;;67.97;49.70;;;19.30;63.30;;;;;;4972597;28;94606;-48
2022/09/28 11:58:23;;;;;;;68.15;49.55;;;19.30;63.40;;;;;;4953911;28;99840;-48
2022/09/28 12:01:24;;;;;;;68.45;49.42;;;19.30;63.40;;;;;;4967947;28;95511;-47
2022/09/28 12:04:01;;;;;;;67.82;49.53;;;19.30;63.40;;;;;;4945439;28;97323;-50
2022/09/28 12:06:36;;;;;;;67.82;49.25;;;19.30;63.50;;;;;;4962782;28;98223;-48
2022/09/28 12:09:48;;;;;;;66.78;49.45;;;19.30;63.30;;;;;;4958944;28;96147;-49
2022/09/28 12:12:32;;;;;;;67.05;49.22;;;19.30;63.60;;;;;;4947455;28;95738;-49
2022/09/28 12:15:04;;;;;;;67.82;49.78;;;19.40;63.30;;;;;;4975896;28;95275;-47
2022/09/28 12:17:42;;;;;;;68.53;49.47;;;19.30;63.10;;;;;;4971076;28;95043;-49
2022/09/28 12:20:31;;;;;;;67.88;49.40;;;19.40;63.50;;;;;;4966329;28;95890;-48
2022/09/28 12:23:19;;;;;;;67.97;49.55;;;19.40;63.30;;;;;;4966926;28;94723;-50
2022/09/28 12:26:14;;;;;;;67.47;49.55;;;19.50;63.40;;;;;;4964150;28;95152;-52
2022/09/28 12:28:49;;;;;;;67.65;49.75;;;19.50;63.10;;;;;;4957809;28;96501;-53
2022/09/28 12:31:20;;;;;;;69.70;49.70;;;19.50;63.10;;;;;;4959768;28;97199;-52
2022/09/28 12:33:49;;;;;;;68.88;50.08;;;19.60;63.10;;;;;;4967089;28;96466;-48
2022/09/28 12:36:44;;;;;;;70.55;50.00;;;19.60;63.00;;;;;;4966960;28;94640;-50
2022/09/28 12:39:30;;;;;;;71.25;49.83;;;19.60;63.00;;;;;;4966334;28;94943;-53
2022/09/28 12:42:12;;;;;;;70.90;49.95;;;19.60;63.20;;;;;;4969765;28;95470;-50
2022/09/28 12:44:40;;;;;;;;;;;19.70;63.40;;;;;;4962469;28;98684;-48
2022/09/28 12:47:12;;;;;;;68.40;49.63;;;19.70;63.60;;;;;;4972279;28;100263;-47
2022/09/28 12:49:55;;;;;;;75.63;50.17;;;19.80;63.80;;;;;;4961922;28;95571;-46
2022/09/28 12:52:48;;;;;;;69.45;49.90;;;19.80;63.70;;;;;;4961598;28;96274;-49
2022/09/28 12:55:14;;;;;;;67.72;49.72;;;19.80;63.60;;;;;;4962683;28;96144;-46
2022/09/28 12:58:16;;;;;;;74.40;50.15;;;19.80;63.20;;;;;;4964052;28;99147;-51
2022/09/28 13:01:22;;;;;;;71.60;50.05;;;19.80;63.40;;;;;;4952455;28;95034;-48
2022/09/28 13:03:57;;;;;;;70.40;49.83;;;19.80;63.10;;;;;;4939890;28;100041;-46
2022/09/28 13:06:54;;;;;;;70.60;49.97;;;19.80;63.00;;;;;;4961004;28;96569;-47